sensor_id;sensor_type;location;lat;lon;timestamp;P1;durP1;ratioP1;P2;durP2;ratioP2
79377;SDS011;68959;53.132;17.984;2023-07-20T00:00:37;7.30;;;4.00;;
79377;SDS011;68959;53.132;17.984;2023-07-20T00:03:24;6.90;;;3.80;;
79377;SDS011;68959;53.132;17.984;2023-07-20T00:05:51;9.60;;;3.90;;
79377;SDS011;68959;53.132;17.984;2023-07-20T00:08:18;5.70;;;4.00;;
79377;SDS011;68959;53.132;17.984;2023-07-20T00:10:45;6.50;;;4.40;;
79377;SDS011;68959;53.132;17.984;2023-07-20T00:13:12;7.10;;;4.30;;
79377;SDS011;68959;53.132;17.984;2023-07-20T00:15:39;6.30;;;4.80;;
79377;SDS011;68959;53.132;17.984;2023-07-20T00:18:06;7.40;;;4.60;;
79377;SDS011;68959;53.132;17.984;2023-07-20T00:20:33;8.70;;;5.40;;
79377;SDS011;68959;53.132;17.984;2023-07-20T00:22:59;9.80;;;4.30;;
79377;SDS011;68959;53.132;17.984;2023-07-20T00:25:26;10.20;;;4.00;;
79377;SDS011;68959;53.132;17.984;2023-07-20T00:27:53;11.50;;;5.10;;
79377;SDS011;68959;53.132;17.984;2023-07-20T00:30:20;7.80;;;4.60;;
79377;SDS011;68959;53.132;17.984;2023-07-20T00:32:47;8.40;;;4.60;;
79377;SDS011;68959;53.132;17.984;2023-07-20T00:35:13;8.90;;;5.00;;
79377;SDS011;68959;53.132;17.984;2023-07-20T00:37:40;11.10;;;5.00;;
79377;SDS011;68959;53.132;17.984;2023-07-20T00:40:07;7.60;;;4.40;;
79377;SDS011;68959;53.132;17.984;2023-07-20T00:42:34;7.20;;;4.30;;
79377;SDS011;68959;53.132;17.984;2023-07-20T00:45:02;7.10;;;4.00;;
79377;SDS011;68959;53.132;17.984;2023-07-20T00:47:30;7.90;;;4.30;;
79377;SDS011;68959;53.132;17.984;2023-07-20T00:49:57;8.60;;;4.30;;
79377;SDS011;68959;53.132;17.984;2023-07-20T00:52:24;12.20;;;5.50;;
79377;SDS011;68959;53.132;17.984;2023-07-20T00:54:54;7.40;;;4.10;;
79377;SDS011;68959;53.132;17.984;2023-07-20T00:57:22;6.60;;;3.80;;
79377;SDS011;68959;53.132;17.984;2023-07-20T00:59:52;10.00;;;3.90;;
79377;SDS011;68959;53.132;17.984;2023-07-20T01:02:19;7.80;;;4.10;;
79377;SDS011;68959;53.132;17.984;2023-07-20T01:04:45;5.70;;;4.00;;
79377;SDS011;68959;53.132;17.984;2023-07-20T01:10:39;7.70;;;4.10;;
79377;SDS011;68959;53.132;17.984;2023-07-20T01:13:11;5.60;;;3.80;;
79377;SDS011;68959;53.132;17.984;2023-07-20T01:15:40;7.90;;;3.80;;
79377;SDS011;68959;53.132;17.984;2023-07-20T01:18:07;8.90;;;4.00;;
79377;SDS011;68959;53.132;17.984;2023-07-20T01:20:34;8.40;;;4.20;;
79377;SDS011;68959;53.132;17.984;2023-07-20T01:29:17;6.00;;;3.90;;
79377;SDS011;68959;53.132;17.984;2023-07-20T01:31:55;10.70;;;4.80;;
79377;SDS011;68959;53.132;17.984;2023-07-20T01:34:24;6.10;;;4.00;;
79377;SDS011;68959;53.132;17.984;2023-07-20T01:36:52;8.70;;;4.10;;
79377;SDS011;68959;53.132;17.984;2023-07-20T01:39:21;8.20;;;4.40;;
79377;SDS011;68959;53.132;17.984;2023-07-20T01:41:48;7.10;;;4.30;;
79377;SDS011;68959;53.132;17.984;2023-07-20T01:44:15;8.40;;;4.40;;
79377;SDS011;68959;53.132;17.984;2023-07-20T01:46:42;7.30;;;4.10;;
79377;SDS011;68959;53.132;17.984;2023-07-20T01:49:08;5.50;;;3.80;;
79377;SDS011;68959;53.132;17.984;2023-07-20T01:51:35;7.80;;;4.50;;
79377;SDS011;68959;53.132;17.984;2023-07-20T01:54:02;7.50;;;4.70;;
79377;SDS011;68959;53.132;17.984;2023-07-20T01:56:28;8.30;;;4.50;;
79377;SDS011;68959;53.132;17.984;2023-07-20T01:58:55;8.20;;;4.90;;
79377;SDS011;68959;53.132;17.984;2023-07-20T02:01:22;8.50;;;4.00;;
79377;SDS011;68959;53.132;17.984;2023-07-20T02:03:50;6.70;;;4.00;;
79377;SDS011;68959;53.132;17.984;2023-07-20T02:06:17;9.90;;;4.30;;
79377;SDS011;68959;53.132;17.984;2023-07-20T02:08:44;7.90;;;4.30;;
79377;SDS011;68959;53.132;17.984;2023-07-20T02:11:10;7.80;;;4.30;;
79377;SDS011;68959;53.132;17.984;2023-07-20T02:13:37;7.10;;;4.40;;
79377;SDS011;68959;53.132;17.984;2023-07-20T02:16:04;7.20;;;4.40;;
79377;SDS011;68959;53.132;17.984;2023-07-20T02:18:31;7.10;;;4.50;;
79377;SDS011;68959;53.132;17.984;2023-07-20T02:20:58;7.40;;;3.90;;
79377;SDS011;68959;53.132;17.984;2023-07-20T02:23:25;8.20;;;4.60;;
79377;SDS011;68959;53.132;17.984;2023-07-20T02:25:52;7.10;;;4.90;;
79377;SDS011;68959;53.132;17.984;2023-07-20T02:28:18;6.90;;;4.70;;
79377;SDS011;68959;53.132;17.984;2023-07-20T02:30:45;8.00;;;4.00;;
79377;SDS011;68959;53.132;17.984;2023-07-20T02:33:12;8.40;;;3.60;;
79377;SDS011;68959;53.132;17.984;2023-07-20T02:35:40;6.00;;;3.30;;
79377;SDS011;68959;53.132;17.984;2023-07-20T02:38:06;5.40;;;3.70;;
79377;SDS011;68959;53.132;17.984;2023-07-20T02:40:33;6.00;;;3.70;;
79377;SDS011;68959;53.132;17.984;2023-07-20T02:43:00;9.10;;;4.30;;
79377;SDS011;68959;53.132;17.984;2023-07-20T02:45:27;6.70;;;3.50;;
79377;SDS011;68959;53.132;17.984;2023-07-20T02:47:54;6.80;;;4.10;;
79377;SDS011;68959;53.132;17.984;2023-07-20T02:50:21;7.20;;;4.10;;
79377;SDS011;68959;53.132;17.984;2023-07-20T02:52:48;7.90;;;4.00;;
79377;SDS011;68959;53.132;17.984;2023-07-20T02:55:16;8.30;;;3.90;;
79377;SDS011;68959;53.132;17.984;2023-07-20T02:57:43;5.90;;;3.60;;
79377;SDS011;68959;53.132;17.984;2023-07-20T03:00:10;5.10;;;3.60;;
79377;SDS011;68959;53.132;17.984;2023-07-20T03:02:37;9.00;;;4.30;;
79377;SDS011;68959;53.132;17.984;2023-07-20T03:05:04;7.00;;;4.20;;
79377;SDS011;68959;53.132;17.984;2023-07-20T03:07:33;8.30;;;4.30;;
79377;SDS011;68959;53.132;17.984;2023-07-20T03:10:00;7.70;;;4.90;;
79377;SDS011;68959;53.132;17.984;2023-07-20T03:12:27;9.10;;;4.30;;
79377;SDS011;68959;53.132;17.984;2023-07-20T03:14:54;9.40;;;4.30;;
79377;SDS011;68959;53.132;17.984;2023-07-20T03:17:21;5.50;;;3.60;;
79377;SDS011;68959;53.132;17.984;2023-07-20T03:19:47;7.30;;;4.00;;
79377;SDS011;68959;53.132;17.984;2023-07-20T03:22:14;8.10;;;4.20;;
79377;SDS011;68959;53.132;17.984;2023-07-20T03:24:41;6.40;;;4.30;;
79377;SDS011;68959;53.132;17.984;2023-07-20T03:27:08;7.50;;;4.20;;
79377;SDS011;68959;53.132;17.984;2023-07-20T03:29:34;6.70;;;4.30;;
79377;SDS011;68959;53.132;17.984;2023-07-20T03:32:01;8.40;;;4.20;;
79377;SDS011;68959;53.132;17.984;2023-07-20T03:34:29;7.30;;;4.80;;
79377;SDS011;68959;53.132;17.984;2023-07-20T03:36:55;6.20;;;3.70;;
79377;SDS011;68959;53.132;17.984;2023-07-20T03:39:22;8.00;;;3.60;;
79377;SDS011;68959;53.132;17.984;2023-07-20T03:41:49;7.50;;;3.90;;
79377;SDS011;68959;53.132;17.984;2023-07-20T03:44:16;6.00;;;3.80;;
79377;SDS011;68959;53.132;17.984;2023-07-20T03:46:43;5.20;;;3.60;;
79377;SDS011;68959;53.132;17.984;2023-07-20T03:49:10;7.50;;;3.80;;
79377;SDS011;68959;53.132;17.984;2023-07-20T03:51:37;5.80;;;3.60;;
79377;SDS011;68959;53.132;17.984;2023-07-20T03:54:03;5.70;;;3.40;;
79377;SDS011;68959;53.132;17.984;2023-07-20T03:56:30;6.30;;;3.80;;
79377;SDS011;68959;53.132;17.984;2023-07-20T03:59:01;6.30;;;3.80;;
79377;SDS011;68959;53.132;17.984;2023-07-20T04:01:28;9.00;;;4.40;;
79377;SDS011;68959;53.132;17.984;2023-07-20T04:03:54;7.60;;;3.90;;
79377;SDS011;68959;53.132;17.984;2023-07-20T04:06:21;6.60;;;3.80;;
79377;SDS011;68959;53.132;17.984;2023-07-20T04:08:48;8.20;;;4.00;;
79377;SDS011;68959;53.132;17.984;2023-07-20T04:11:15;5.60;;;3.40;;
79377;SDS011;68959;53.132;17.984;2023-07-20T04:13:42;8.10;;;3.50;;
79377;SDS011;68959;53.132;17.984;2023-07-20T04:16:08;7.40;;;3.40;;
79377;SDS011;68959;53.132;17.984;2023-07-20T04:18:35;7.20;;;3.30;;
79377;SDS011;68959;53.132;17.984;2023-07-20T04:21:01;4.90;;;3.10;;
79377;SDS011;68959;53.132;17.984;2023-07-20T04:23:28;11.20;;;3.00;;
79377;SDS011;68959;53.132;17.984;2023-07-20T04:25:55;4.80;;;2.90;;
79377;SDS011;68959;53.132;17.984;2023-07-20T04:28:24;5.30;;;3.30;;
79377;SDS011;68959;53.132;17.984;2023-07-20T04:30:52;5.90;;;3.80;;
79377;SDS011;68959;53.132;17.984;2023-07-20T04:33:18;4.80;;;3.20;;
79377;SDS011;68959;53.132;17.984;2023-07-20T04:35:53;5.30;;;3.20;;
79377;SDS011;68959;53.132;17.984;2023-07-20T04:38:24;6.00;;;2.70;;
79377;SDS011;68959;53.132;17.984;2023-07-20T04:40:58;6.70;;;2.70;;
79377;SDS011;68959;53.132;17.984;2023-07-20T04:43:25;10.60;;;3.60;;
79377;SDS011;68959;53.132;17.984;2023-07-20T04:45:52;5.10;;;2.70;;
79377;SDS011;68959;53.132;17.984;2023-07-20T04:48:19;5.90;;;2.70;;
79377;SDS011;68959;53.132;17.984;2023-07-20T04:50:51;6.40;;;3.10;;
79377;SDS011;68959;53.132;17.984;2023-07-20T04:53:18;6.30;;;3.10;;
79377;SDS011;68959;53.132;17.984;2023-07-20T04:55:48;7.70;;;3.30;;
79377;SDS011;68959;53.132;17.984;2023-07-20T04:58:18;4.60;;;3.20;;
79377;SDS011;68959;53.132;17.984;2023-07-20T05:00:46;5.20;;;2.90;;
79377;SDS011;68959;53.132;17.984;2023-07-20T05:03:14;7.60;;;3.20;;
79377;SDS011;68959;53.132;17.984;2023-07-20T05:05:41;4.60;;;2.70;;
79377;SDS011;68959;53.132;17.984;2023-07-20T05:08:08;9.20;;;2.90;;
79377;SDS011;68959;53.132;17.984;2023-07-20T05:10:34;4.70;;;2.60;;
79377;SDS011;68959;53.132;17.984;2023-07-20T05:13:01;3.60;;;2.50;;
79377;SDS011;68959;53.132;17.984;2023-07-20T05:15:28;4.00;;;2.60;;
79377;SDS011;68959;53.132;17.984;2023-07-20T05:17:55;5.70;;;2.70;;
79377;SDS011;68959;53.132;17.984;2023-07-20T05:20:23;8.00;;;2.90;;
79377;SDS011;68959;53.132;17.984;2023-07-20T05:22:49;5.20;;;2.90;;
79377;SDS011;68959;53.132;17.984;2023-07-20T05:25:16;8.30;;;3.00;;
79377;SDS011;68959;53.132;17.984;2023-07-20T05:27:45;7.50;;;3.00;;
79377;SDS011;68959;53.132;17.984;2023-07-20T05:30:12;4.30;;;2.30;;
79377;SDS011;68959;53.132;17.984;2023-07-20T05:32:39;4.90;;;2.40;;
79377;SDS011;68959;53.132;17.984;2023-07-20T05:35:06;5.80;;;2.30;;
79377;SDS011;68959;53.132;17.984;2023-07-20T05:37:34;8.20;;;2.80;;
79377;SDS011;68959;53.132;17.984;2023-07-20T05:40:01;8.10;;;2.80;;
79377;SDS011;68959;53.132;17.984;2023-07-20T05:42:28;5.40;;;2.80;;
79377;SDS011;68959;53.132;17.984;2023-07-20T05:44:54;4.50;;;2.70;;
79377;SDS011;68959;53.132;17.984;2023-07-20T05:47:21;6.90;;;2.80;;
79377;SDS011;68959;53.132;17.984;2023-07-20T05:49:48;6.40;;;2.30;;
79377;SDS011;68959;53.132;17.984;2023-07-20T05:52:15;5.30;;;2.20;;
79377;SDS011;68959;53.132;17.984;2023-07-20T05:54:41;10.50;;;2.30;;
79377;SDS011;68959;53.132;17.984;2023-07-20T05:57:08;4.30;;;2.40;;
79377;SDS011;68959;53.132;17.984;2023-07-20T05:59:34;9.00;;;2.70;;
79377;SDS011;68959;53.132;17.984;2023-07-20T06:02:02;3.50;;;2.40;;
79377;SDS011;68959;53.132;17.984;2023-07-20T06:04:31;5.40;;;2.20;;
79377;SDS011;68959;53.132;17.984;2023-07-20T06:06:58;5.80;;;2.70;;
79377;SDS011;68959;53.132;17.984;2023-07-20T06:09:24;5.70;;;2.80;;
79377;SDS011;68959;53.132;17.984;2023-07-20T06:11:51;5.40;;;2.80;;
79377;SDS011;68959;53.132;17.984;2023-07-20T06:14:17;4.40;;;2.80;;
79377;SDS011;68959;53.132;17.984;2023-07-20T06:16:45;6.80;;;3.00;;
79377;SDS011;68959;53.132;17.984;2023-07-20T06:19:11;6.50;;;2.70;;
79377;SDS011;68959;53.132;17.984;2023-07-20T06:21:38;5.20;;;2.40;;
79377;SDS011;68959;53.132;17.984;2023-07-20T06:24:05;3.70;;;2.10;;
79377;SDS011;68959;53.132;17.984;2023-07-20T06:26:32;5.10;;;2.50;;
79377;SDS011;68959;53.132;17.984;2023-07-20T06:29:05;6.60;;;3.00;;
79377;SDS011;68959;53.132;17.984;2023-07-20T06:31:33;6.50;;;2.50;;
79377;SDS011;68959;53.132;17.984;2023-07-20T06:34:00;6.30;;;3.00;;
79377;SDS011;68959;53.132;17.984;2023-07-20T06:36:27;8.00;;;2.60;;
79377;SDS011;68959;53.132;17.984;2023-07-20T06:38:54;7.80;;;2.90;;
79377;SDS011;68959;53.132;17.984;2023-07-20T06:41:22;4.40;;;2.50;;
79377;SDS011;68959;53.132;17.984;2023-07-20T06:43:50;3.90;;;2.20;;
79377;SDS011;68959;53.132;17.984;2023-07-20T06:46:16;4.70;;;2.20;;
79377;SDS011;68959;53.132;17.984;2023-07-20T06:48:43;4.60;;;2.00;;
79377;SDS011;68959;53.132;17.984;2023-07-20T06:51:09;4.40;;;2.20;;
79377;SDS011;68959;53.132;17.984;2023-07-20T06:53:36;4.30;;;2.20;;
79377;SDS011;68959;53.132;17.984;2023-07-20T06:56:02;7.10;;;2.10;;
79377;SDS011;68959;53.132;17.984;2023-07-20T06:58:30;5.60;;;2.20;;
79377;SDS011;68959;53.132;17.984;2023-07-20T07:00:56;4.00;;;2.00;;
79377;SDS011;68959;53.132;17.984;2023-07-20T07:03:23;4.30;;;2.10;;
79377;SDS011;68959;53.132;17.984;2023-07-20T07:05:49;6.50;;;2.00;;
79377;SDS011;68959;53.132;17.984;2023-07-20T07:08:16;7.60;;;2.40;;
79377;SDS011;68959;53.132;17.984;2023-07-20T07:10:43;4.00;;;2.10;;
79377;SDS011;68959;53.132;17.984;2023-07-20T07:13:09;6.20;;;2.30;;
79377;SDS011;68959;53.132;17.984;2023-07-20T07:15:36;9.00;;;2.20;;
79377;SDS011;68959;53.132;17.984;2023-07-20T07:18:03;6.00;;;1.90;;
79377;SDS011;68959;53.132;17.984;2023-07-20T07:20:29;5.70;;;2.40;;
79377;SDS011;68959;53.132;17.984;2023-07-20T07:22:56;3.90;;;2.10;;
79377;SDS011;68959;53.132;17.984;2023-07-20T07:25:23;6.80;;;2.20;;
79377;SDS011;68959;53.132;17.984;2023-07-20T07:27:50;5.40;;;2.20;;
79377;SDS011;68959;53.132;17.984;2023-07-20T07:30:20;3.90;;;1.90;;
79377;SDS011;68959;53.132;17.984;2023-07-20T07:32:47;3.80;;;1.80;;
79377;SDS011;68959;53.132;17.984;2023-07-20T07:35:14;4.40;;;2.00;;
79377;SDS011;68959;53.132;17.984;2023-07-20T07:37:40;6.40;;;2.10;;
79377;SDS011;68959;53.132;17.984;2023-07-20T07:40:07;5.70;;;2.00;;
79377;SDS011;68959;53.132;17.984;2023-07-20T07:42:35;6.40;;;2.30;;
79377;SDS011;68959;53.132;17.984;2023-07-20T07:45:03;5.90;;;2.10;;
79377;SDS011;68959;53.132;17.984;2023-07-20T07:47:30;6.20;;;2.00;;
79377;SDS011;68959;53.132;17.984;2023-07-20T07:49:57;3.20;;;1.80;;
79377;SDS011;68959;53.132;17.984;2023-07-20T07:52:23;7.00;;;1.90;;
79377;SDS011;68959;53.132;17.984;2023-07-20T07:54:50;3.20;;;1.50;;
79377;SDS011;68959;53.132;17.984;2023-07-20T07:57:16;3.80;;;1.50;;
79377;SDS011;68959;53.132;17.984;2023-07-20T07:59:43;3.70;;;1.60;;
79377;SDS011;68959;53.132;17.984;2023-07-20T08:02:10;5.20;;;1.60;;
79377;SDS011;68959;53.132;17.984;2023-07-20T08:04:36;1.80;;;1.30;;
79377;SDS011;68959;53.132;17.984;2023-07-20T08:07:03;3.80;;;1.50;;
79377;SDS011;68959;53.132;17.984;2023-07-20T08:09:30;4.20;;;1.40;;
79377;SDS011;68959;53.132;17.984;2023-07-20T08:11:57;5.00;;;1.50;;
79377;SDS011;68959;53.132;17.984;2023-07-20T08:14:24;4.10;;;1.50;;
79377;SDS011;68959;53.132;17.984;2023-07-20T08:16:51;2.50;;;1.30;;
79377;SDS011;68959;53.132;17.984;2023-07-20T08:19:18;3.00;;;1.30;;
79377;SDS011;68959;53.132;17.984;2023-07-20T08:21:45;5.40;;;1.50;;
79377;SDS011;68959;53.132;17.984;2023-07-20T08:24:12;3.80;;;1.60;;
79377;SDS011;68959;53.132;17.984;2023-07-20T08:26:39;3.80;;;1.80;;
79377;SDS011;68959;53.132;17.984;2023-07-20T08:29:05;3.60;;;2.10;;
79377;SDS011;68959;53.132;17.984;2023-07-20T08:31:32;4.00;;;2.20;;
79377;SDS011;68959;53.132;17.984;2023-07-20T08:33:58;6.90;;;1.80;;
79377;SDS011;68959;53.132;17.984;2023-07-20T08:36:25;3.40;;;1.40;;
79377;SDS011;68959;53.132;17.984;2023-07-20T08:38:52;4.10;;;1.60;;
79377;SDS011;68959;53.132;17.984;2023-07-20T08:41:19;5.10;;;1.70;;
79377;SDS011;68959;53.132;17.984;2023-07-20T08:43:46;7.20;;;1.70;;
79377;SDS011;68959;53.132;17.984;2023-07-20T08:46:14;4.10;;;1.50;;
79377;SDS011;68959;53.132;17.984;2023-07-20T08:48:42;3.70;;;1.90;;
79377;SDS011;68959;53.132;17.984;2023-07-20T08:51:10;6.40;;;1.60;;
79377;SDS011;68959;53.132;17.984;2023-07-20T08:53:39;4.90;;;1.50;;
79377;SDS011;68959;53.132;17.984;2023-07-20T08:56:06;3.10;;;1.40;;
79377;SDS011;68959;53.132;17.984;2023-07-20T08:58:37;3.40;;;1.70;;
79377;SDS011;68959;53.132;17.984;2023-07-20T09:01:05;4.20;;;1.70;;
79377;SDS011;68959;53.132;17.984;2023-07-20T09:03:33;3.10;;;1.70;;
79377;SDS011;68959;53.132;17.984;2023-07-20T09:06:00;3.90;;;1.70;;
79377;SDS011;68959;53.132;17.984;2023-07-20T09:08:27;7.50;;;2.00;;
79377;SDS011;68959;53.132;17.984;2023-07-20T09:10:53;1.70;;;1.30;;
79377;SDS011;68959;53.132;17.984;2023-07-20T09:13:20;4.50;;;1.80;;
79377;SDS011;68959;53.132;17.984;2023-07-20T09:15:47;5.00;;;1.70;;
79377;SDS011;68959;53.132;17.984;2023-07-20T09:18:23;2.60;;;1.40;;
79377;SDS011;68959;53.132;17.984;2023-07-20T09:20:51;4.60;;;1.40;;
79377;SDS011;68959;53.132;17.984;2023-07-20T09:23:18;3.70;;;1.40;;
79377;SDS011;68959;53.132;17.984;2023-07-20T09:25:45;3.60;;;1.60;;
79377;SDS011;68959;53.132;17.984;2023-07-20T09:28:17;1.70;;;1.10;;
79377;SDS011;68959;53.132;17.984;2023-07-20T09:30:44;3.40;;;1.20;;
79377;SDS011;68959;53.132;17.984;2023-07-20T09:33:18;4.10;;;1.30;;
79377;SDS011;68959;53.132;17.984;2023-07-20T09:35:46;4.40;;;1.20;;
79377;SDS011;68959;53.132;17.984;2023-07-20T09:38:13;4.70;;;1.40;;
79377;SDS011;68959;53.132;17.984;2023-07-20T09:40:42;3.30;;;1.30;;
79377;SDS011;68959;53.132;17.984;2023-07-20T09:43:09;2.60;;;1.20;;
79377;SDS011;68959;53.132;17.984;2023-07-20T09:45:40;3.80;;;1.30;;
79377;SDS011;68959;53.132;17.984;2023-07-20T09:48:10;3.30;;;1.20;;
79377;SDS011;68959;53.132;17.984;2023-07-20T09:50:42;4.30;;;1.60;;
79377;SDS011;68959;53.132;17.984;2023-07-20T09:53:15;3.90;;;1.30;;
79377;SDS011;68959;53.132;17.984;2023-07-20T09:55:44;4.50;;;1.30;;
79377;SDS011;68959;53.132;17.984;2023-07-20T09:58:14;2.00;;;1.30;;
79377;SDS011;68959;53.132;17.984;2023-07-20T10:00:42;2.70;;;1.30;;
79377;SDS011;68959;53.132;17.984;2023-07-20T10:03:14;6.20;;;1.40;;
79377;SDS011;68959;53.132;17.984;2023-07-20T10:05:51;4.00;;;1.50;;
79377;SDS011;68959;53.132;17.984;2023-07-20T10:08:21;2.40;;;1.20;;
79377;SDS011;68959;53.132;17.984;2023-07-20T10:10:52;2.90;;;1.50;;
79377;SDS011;68959;53.132;17.984;2023-07-20T10:13:27;7.80;;;1.20;;
79377;SDS011;68959;53.132;17.984;2023-07-20T10:16:02;3.90;;;1.30;;
79377;SDS011;68959;53.132;17.984;2023-07-20T10:21:25;2.20;;;1.40;;
79377;SDS011;68959;53.132;17.984;2023-07-20T10:23:52;3.30;;;1.30;;
79377;SDS011;68959;53.132;17.984;2023-07-20T10:26:20;3.20;;;1.30;;
79377;SDS011;68959;53.132;17.984;2023-07-20T10:28:46;5.40;;;1.60;;
79377;SDS011;68959;53.132;17.984;2023-07-20T10:31:13;3.60;;;1.00;;
79377;SDS011;68959;53.132;17.984;2023-07-20T10:33:42;2.60;;;1.20;;
79377;SDS011;68959;53.132;17.984;2023-07-20T10:36:09;6.40;;;1.50;;
79377;SDS011;68959;53.132;17.984;2023-07-20T10:38:39;3.40;;;1.40;;
79377;SDS011;68959;53.132;17.984;2023-07-20T10:41:20;5.60;;;1.50;;
79377;SDS011;68959;53.132;17.984;2023-07-20T10:43:48;3.90;;;1.30;;
79377;SDS011;68959;53.132;17.984;2023-07-20T10:46:33;7.00;;;1.30;;
79377;SDS011;68959;53.132;17.984;2023-07-20T10:49:06;3.40;;;1.50;;
79377;SDS011;68959;53.132;17.984;2023-07-20T10:51:47;4.40;;;1.60;;
79377;SDS011;68959;53.132;17.984;2023-07-20T10:56:42;4.70;;;1.70;;
79377;SDS011;68959;53.132;17.984;2023-07-20T10:59:20;3.90;;;1.40;;
79377;SDS011;68959;53.132;17.984;2023-07-20T11:01:59;4.30;;;1.40;;
79377;SDS011;68959;53.132;17.984;2023-07-20T11:04:40;3.70;;;1.30;;
79377;SDS011;68959;53.132;17.984;2023-07-20T11:07:10;4.10;;;1.50;;
79377;SDS011;68959;53.132;17.984;2023-07-20T11:09:37;4.90;;;1.40;;
79377;SDS011;68959;53.132;17.984;2023-07-20T11:12:09;8.30;;;1.80;;
79377;SDS011;68959;53.132;17.984;2023-07-20T11:14:55;3.70;;;1.20;;
79377;SDS011;68959;53.132;17.984;2023-07-20T11:17:30;3.20;;;1.20;;
79377;SDS011;68959;53.132;17.984;2023-07-20T11:19:58;2.20;;;1.20;;
79377;SDS011;68959;53.132;17.984;2023-07-20T11:22:30;6.50;;;1.30;;
79377;SDS011;68959;53.132;17.984;2023-07-20T11:24:57;7.20;;;1.50;;
79377;SDS011;68959;53.132;17.984;2023-07-20T11:27:25;2.90;;;1.40;;
79377;SDS011;68959;53.132;17.984;2023-07-20T11:29:52;3.30;;;1.60;;
79377;SDS011;68959;53.132;17.984;2023-07-20T11:32:22;7.00;;;1.60;;
79377;SDS011;68959;53.132;17.984;2023-07-20T11:34:49;1.90;;;1.20;;
79377;SDS011;68959;53.132;17.984;2023-07-20T11:37:17;4.50;;;1.30;;
79377;SDS011;68959;53.132;17.984;2023-07-20T11:39:44;4.90;;;1.40;;
79377;SDS011;68959;53.132;17.984;2023-07-20T11:42:11;2.50;;;1.40;;
79377;SDS011;68959;53.132;17.984;2023-07-20T11:44:38;5.50;;;1.10;;
79377;SDS011;68959;53.132;17.984;2023-07-20T11:47:08;6.30;;;1.90;;
79377;SDS011;68959;53.132;17.984;2023-07-20T11:49:37;10.50;;;2.40;;
79377;SDS011;68959;53.132;17.984;2023-07-20T11:52:15;3.60;;;1.40;;
79377;SDS011;68959;53.132;17.984;2023-07-20T11:54:43;2.90;;;1.30;;
79377;SDS011;68959;53.132;17.984;2023-07-20T11:57:16;4.10;;;1.50;;
79377;SDS011;68959;53.132;17.984;2023-07-20T11:59:57;4.60;;;1.60;;
79377;SDS011;68959;53.132;17.984;2023-07-20T12:02:28;4.60;;;1.90;;
79377;SDS011;68959;53.132;17.984;2023-07-20T12:04:55;4.10;;;1.70;;
79377;SDS011;68959;53.132;17.984;2023-07-20T12:07:22;5.70;;;1.30;;
79377;SDS011;68959;53.132;17.984;2023-07-20T12:12:40;3.60;;;1.40;;
79377;SDS011;68959;53.132;17.984;2023-07-20T12:17:42;2.90;;;1.50;;
79377;SDS011;68959;53.132;17.984;2023-07-20T12:20:10;5.30;;;1.50;;
79377;SDS011;68959;53.132;17.984;2023-07-20T12:22:40;9.70;;;2.00;;
79377;SDS011;68959;53.132;17.984;2023-07-20T12:25:09;4.70;;;1.80;;
79377;SDS011;68959;53.132;17.984;2023-07-20T12:27:36;3.00;;;1.40;;
79377;SDS011;68959;53.132;17.984;2023-07-20T12:30:07;3.00;;;1.50;;
79377;SDS011;68959;53.132;17.984;2023-07-20T12:32:34;4.50;;;1.40;;
79377;SDS011;68959;53.132;17.984;2023-07-20T12:35:01;4.80;;;1.20;;
79377;SDS011;68959;53.132;17.984;2023-07-20T12:37:28;4.40;;;1.50;;
79377;SDS011;68959;53.132;17.984;2023-07-20T12:39:55;3.50;;;1.00;;
79377;SDS011;68959;53.132;17.984;2023-07-20T12:42:22;3.20;;;1.60;;
79377;SDS011;68959;53.132;17.984;2023-07-20T12:44:49;4.70;;;1.30;;
79377;SDS011;68959;53.132;17.984;2023-07-20T12:47:17;4.00;;;1.80;;
79377;SDS011;68959;53.132;17.984;2023-07-20T12:49:45;3.60;;;1.50;;
79377;SDS011;68959;53.132;17.984;2023-07-20T12:52:13;2.30;;;1.40;;
79377;SDS011;68959;53.132;17.984;2023-07-20T12:54:40;2.80;;;1.70;;
79377;SDS011;68959;53.132;17.984;2023-07-20T12:57:06;5.60;;;1.40;;
79377;SDS011;68959;53.132;17.984;2023-07-20T12:59:33;2.30;;;1.20;;
79377;SDS011;68959;53.132;17.984;2023-07-20T13:02:00;3.20;;;1.60;;
79377;SDS011;68959;53.132;17.984;2023-07-20T13:04:27;3.60;;;1.30;;
79377;SDS011;68959;53.132;17.984;2023-07-20T13:06:53;4.70;;;1.30;;
79377;SDS011;68959;53.132;17.984;2023-07-20T13:09:21;1.90;;;1.10;;
79377;SDS011;68959;53.132;17.984;2023-07-20T13:11:47;5.50;;;1.40;;
79377;SDS011;68959;53.132;17.984;2023-07-20T13:14:14;1.70;;;1.10;;
79377;SDS011;68959;53.132;17.984;2023-07-20T13:16:41;2.70;;;1.30;;
79377;SDS011;68959;53.132;17.984;2023-07-20T13:19:08;3.50;;;1.40;;
79377;SDS011;68959;53.132;17.984;2023-07-20T13:21:34;2.60;;;1.30;;
79377;SDS011;68959;53.132;17.984;2023-07-20T13:24:01;4.70;;;1.70;;
79377;SDS011;68959;53.132;17.984;2023-07-20T13:26:28;4.10;;;1.40;;
79377;SDS011;68959;53.132;17.984;2023-07-20T13:28:55;1.70;;;1.20;;
79377;SDS011;68959;53.132;17.984;2023-07-20T13:31:22;5.10;;;1.30;;
79377;SDS011;68959;53.132;17.984;2023-07-20T13:33:48;4.80;;;4.00;;
79377;SDS011;68959;53.132;17.984;2023-07-20T13:36:15;2.30;;;1.30;;
79377;SDS011;68959;53.132;17.984;2023-07-20T13:38:41;1.80;;;1.20;;
79377;SDS011;68959;53.132;17.984;2023-07-20T13:41:08;2.90;;;1.30;;
79377;SDS011;68959;53.132;17.984;2023-07-20T13:43:35;1.80;;;1.00;;
79377;SDS011;68959;53.132;17.984;2023-07-20T13:46:01;1.30;;;0.90;;
79377;SDS011;68959;53.132;17.984;2023-07-20T13:48:28;2.60;;;1.10;;
79377;SDS011;68959;53.132;17.984;2023-07-20T13:50:55;1.20;;;0.80;;
79377;SDS011;68959;53.132;17.984;2023-07-20T13:53:21;1.20;;;0.80;;
79377;SDS011;68959;53.132;17.984;2023-07-20T13:55:49;1.70;;;0.90;;
79377;SDS011;68959;53.132;17.984;2023-07-20T13:58:15;0.70;;;0.50;;
79377;SDS011;68959;53.132;17.984;2023-07-20T14:00:42;1.30;;;0.50;;
79377;SDS011;68959;53.132;17.984;2023-07-20T14:03:09;0.70;;;0.70;;
79377;SDS011;68959;53.132;17.984;2023-07-20T14:05:36;0.70;;;0.70;;
79377;SDS011;68959;53.132;17.984;2023-07-20T14:08:02;3.20;;;0.90;;
79377;SDS011;68959;53.132;17.984;2023-07-20T14:10:29;1.70;;;0.90;;
79377;SDS011;68959;53.132;17.984;2023-07-20T14:12:55;1.80;;;1.00;;
79377;SDS011;68959;53.132;17.984;2023-07-20T14:15:22;3.20;;;1.30;;
79377;SDS011;68959;53.132;17.984;2023-07-20T14:17:49;1.50;;;1.10;;
79377;SDS011;68959;53.132;17.984;2023-07-20T14:20:15;1.60;;;1.00;;
79377;SDS011;68959;53.132;17.984;2023-07-20T14:22:42;1.80;;;0.90;;
79377;SDS011;68959;53.132;17.984;2023-07-20T14:25:09;2.00;;;0.80;;
79377;SDS011;68959;53.132;17.984;2023-07-20T14:27:35;1.70;;;1.20;;
79377;SDS011;68959;53.132;17.984;2023-07-20T14:30:02;2.10;;;1.10;;
79377;SDS011;68959;53.132;17.984;2023-07-20T14:32:29;1.80;;;1.00;;
79377;SDS011;68959;53.132;17.984;2023-07-20T14:34:55;2.30;;;1.10;;
79377;SDS011;68959;53.132;17.984;2023-07-20T14:37:22;2.20;;;1.10;;
79377;SDS011;68959;53.132;17.984;2023-07-20T14:39:49;3.50;;;0.90;;
79377;SDS011;68959;53.132;17.984;2023-07-20T14:42:15;2.50;;;1.00;;
79377;SDS011;68959;53.132;17.984;2023-07-20T14:44:42;2.90;;;1.10;;
79377;SDS011;68959;53.132;17.984;2023-07-20T14:47:08;1.20;;;1.10;;
79377;SDS011;68959;53.132;17.984;2023-07-20T14:49:35;2.90;;;1.50;;
79377;SDS011;68959;53.132;17.984;2023-07-20T14:52:02;1.20;;;1.10;;
79377;SDS011;68959;53.132;17.984;2023-07-20T14:54:29;1.00;;;0.90;;
79377;SDS011;68959;53.132;17.984;2023-07-20T14:56:56;1.00;;;0.80;;